sensor_id;sensor_type;location;lat;lon;timestamp;temperature;humidity
11043;DHT22;5574;48.786;10.120;2023-05-07T00:02:01;13.50;99.90
11043;DHT22;5574;48.786;10.120;2023-05-07T00:04:29;13.60;99.90
11043;DHT22;5574;48.786;10.120;2023-05-07T00:07:01;13.60;99.90
11043;DHT22;5574;48.786;10.120;2023-05-07T00:09:28;13.50;99.90
11043;DHT22;5574;48.786;10.120;2023-05-07T00:11:54;13.50;99.90
11043;DHT22;5574;48.786;10.120;2023-05-07T00:14:21;13.50;99.90
11043;DHT22;5574;48.786;10.120;2023-05-07T00:16:49;13.50;99.90
11043;DHT22;5574;48.786;10.120;2023-05-07T00:19:16;13.50;99.90
11043;DHT22;5574;48.786;10.120;2023-05-07T00:21:42;13.50;99.90
11043;DHT22;5574;48.786;10.120;2023-05-07T00:24:09;13.40;99.90
11043;DHT22;5574;48.786;10.120;2023-05-07T00:26:35;13.40;99.90
11043;DHT22;5574;48.786;10.120;2023-05-07T00:29:02;13.30;99.90
11043;DHT22;5574;48.786;10.120;2023-05-07T00:31:29;13.40;99.90
11043;DHT22;5574;48.786;10.120;2023-05-07T00:33:57;13.40;99.90
11043;DHT22;5574;48.786;10.120;2023-05-07T00:36:23;13.30;99.90
11043;DHT22;5574;48.786;10.120;2023-05-07T00:38:51;13.40;99.90
11043;DHT22;5574;48.786;10.120;2023-05-07T00:41:18;13.40;99.90
11043;DHT22;5574;48.786;10.120;2023-05-07T00:43:45;13.30;99.90
11043;DHT22;5574;48.786;10.120;2023-05-07T00:46:12;13.30;99.90
11043;DHT22;5574;48.786;10.120;2023-05-07T00:48:40;13.30;99.90
11043;DHT22;5574;48.786;10.120;2023-05-07T00:51:09;13.30;99.90
11043;DHT22;5574;48.786;10.120;2023-05-07T00:53:37;13.30;99.90
11043;DHT22;5574;48.786;10.120;2023-05-07T00:56:05;13.30;99.90
11043;DHT22;5574;48.786;10.120;2023-05-07T00:58:32;13.20;99.90
11043;DHT22;5574;48.786;10.120;2023-05-07T01:01:00;13.20;99.90
11043;DHT22;5574;48.786;10.120;2023-05-07T01:03:26;13.20;99.90
11043;DHT22;5574;48.786;10.120;2023-05-07T01:05:54;13.20;99.90
11043;DHT22;5574;48.786;10.120;2023-05-07T01:08:24;13.20;99.90
11043;DHT22;5574;48.786;10.120;2023-05-07T01:10:54;13.20;99.90
11043;DHT22;5574;48.786;10.120;2023-05-07T01:13:21;13.10;99.90
11043;DHT22;5574;48.786;10.120;2023-05-07T01:15:47;13.10;99.90
11043;DHT22;5574;48.786;10.120;2023-05-07T01:18:14;13.00;99.90
11043;DHT22;5574;48.786;10.120;2023-05-07T01:20:41;13.00;99.90
11043;DHT22;5574;48.786;10.120;2023-05-07T01:23:11;13.00;99.90
11043;DHT22;5574;48.786;10.120;2023-05-07T01:25:37;13.00;99.90
11043;DHT22;5574;48.786;10.120;2023-05-07T01:28:04;13.00;99.90
11043;DHT22;5574;48.786;10.120;2023-05-07T01:30:31;13.00;99.90
11043;DHT22;5574;48.786;10.120;2023-05-07T01:33:02;13.00;99.90
11043;DHT22;5574;48.786;10.120;2023-05-07T01:35:36;12.90;99.90
11043;DHT22;5574;48.786;10.120;2023-05-07T01:38:04;12.90;99.90
11043;DHT22;5574;48.786;10.120;2023-05-07T01:40:33;12.90;99.90
11043;DHT22;5574;48.786;10.120;2023-05-07T01:43:01;12.90;99.90
11043;DHT22;5574;48.786;10.120;2023-05-07T01:45:28;12.80;99.90
11043;DHT22;5574;48.786;10.120;2023-05-07T01:47:56;12.80;99.90
11043;DHT22;5574;48.786;10.120;2023-05-07T01:50:24;12.80;99.90
11043;DHT22;5574;48.786;10.120;2023-05-07T01:52:52;12.80;99.90
11043;DHT22;5574;48.786;10.120;2023-05-07T01:55:18;12.80;99.90
11043;DHT22;5574;48.786;10.120;2023-05-07T01:57:47;12.80;99.90
11043;DHT22;5574;48.786;10.120;2023-05-07T02:00:14;12.80;99.90
11043;DHT22;5574;48.786;10.120;2023-05-07T02:02:41;12.80;99.90
11043;DHT22;5574;48.786;10.120;2023-05-07T02:05:08;12.80;99.90
11043;DHT22;5574;48.786;10.120;2023-05-07T02:07:35;12.70;99.90
11043;DHT22;5574;48.786;10.120;2023-05-07T02:10:02;12.80;99.90
11043;DHT22;5574;48.786;10.120;2023-05-07T02:12:29;12.80;99.90
11043;DHT22;5574;48.786;10.120;2023-05-07T02:14:57;12.70;99.90
11043;DHT22;5574;48.786;10.120;2023-05-07T02:17:24;12.70;99.90
11043;DHT22;5574;48.786;10.120;2023-05-07T02:19:51;12.70;99.90
11043;DHT22;5574;48.786;10.120;2023-05-07T02:22:18;12.70;99.90
11043;DHT22;5574;48.786;10.120;2023-05-07T02:24:44;12.70;99.90
11043;DHT22;5574;48.786;10.120;2023-05-07T02:27:11;12.60;99.90
11043;DHT22;5574;48.786;10.120;2023-05-07T02:29:37;12.70;99.90
11043;DHT22;5574;48.786;10.120;2023-05-07T02:32:06;12.60;99.90
11043;DHT22;5574;48.786;10.120;2023-05-07T02:34:33;12.60;99.90
11043;DHT22;5574;48.786;10.120;2023-05-07T02:36:59;12.60;99.90
11043;DHT22;5574;48.786;10.120;2023-05-07T02:39:26;12.60;99.90
11043;DHT22;5574;48.786;10.120;2023-05-07T02:41:53;12.60;99.90
11043;DHT22;5574;48.786;10.120;2023-05-07T02:44:19;12.60;99.90
11043;DHT22;5574;48.786;10.120;2023-05-07T02:46:46;12.60;99.90
11043;DHT22;5574;48.786;10.120;2023-05-07T02:49:14;12.50;99.90
11043;DHT22;5574;48.786;10.120;2023-05-07T02:51:40;12.50;99.90
11043;DHT22;5574;48.786;10.120;2023-05-07T02:54:07;12.50;99.90
11043;DHT22;5574;48.786;10.120;2023-05-07T02:56:34;12.40;99.90
11043;DHT22;5574;48.786;10.120;2023-05-07T02:59:00;12.40;99.90
11043;DHT22;5574;48.786;10.120;2023-05-07T03:01:27;12.40;99.90
11043;DHT22;5574;48.786;10.120;2023-05-07T03:03:54;12.40;99.90
11043;DHT22;5574;48.786;10.120;2023-05-07T03:06:22;12.40;99.90
11043;DHT22;5574;48.786;10.120;2023-05-07T03:08:48;12.40;99.90
11043;DHT22;5574;48.786;10.120;2023-05-07T03:11:15;12.40;99.90
11043;DHT22;5574;48.786;10.120;2023-05-07T03:13:42;12.40;99.90
11043;DHT22;5574;48.786;10.120;2023-05-07T03:16:08;12.40;99.90
11043;DHT22;5574;48.786;10.120;2023-05-07T03:18:35;12.40;99.90
11043;DHT22;5574;48.786;10.120;2023-05-07T03:21:02;12.40;99.90
11043;DHT22;5574;48.786;10.120;2023-05-07T03:23:30;12.40;99.90
11043;DHT22;5574;48.786;10.120;2023-05-07T03:25:57;12.40;99.90
11043;DHT22;5574;48.786;10.120;2023-05-07T03:28:23;12.30;99.90
11043;DHT22;5574;48.786;10.120;2023-05-07T03:30:50;12.20;99.90
11043;DHT22;5574;48.786;10.120;2023-05-07T03:33:17;12.20;99.90
11043;DHT22;5574;48.786;10.120;2023-05-07T03:35:43;12.20;99.90
11043;DHT22;5574;48.786;10.120;2023-05-07T03:38:10;12.20;99.90
11043;DHT22;5574;48.786;10.120;2023-05-07T03:40:38;12.20;99.90
11043;DHT22;5574;48.786;10.120;2023-05-07T03:43:05;12.20;99.90
11043;DHT22;5574;48.786;10.120;2023-05-07T03:45:32;12.30;99.90
11043;DHT22;5574;48.786;10.120;2023-05-07T03:47:58;12.20;99.90
11043;DHT22;5574;48.786;10.120;2023-05-07T03:50:25;12.20;99.90
11043;DHT22;5574;48.786;10.120;2023-05-07T03:52:52;12.30;99.90
11043;DHT22;5574;48.786;10.120;2023-05-07T03:55:18;12.30;99.90
11043;DHT22;5574;48.786;10.120;2023-05-07T03:57:46;12.20;99.90
11043;DHT22;5574;48.786;10.120;2023-05-07T04:00:14;12.20;99.90
11043;DHT22;5574;48.786;10.120;2023-05-07T04:02:40;12.10;99.90
11043;DHT22;5574;48.786;10.120;2023-05-07T04:05:07;12.10;99.90
11043;DHT22;5574;48.786;10.120;2023-05-07T04:07:35;12.10;99.90
11043;DHT22;5574;48.786;10.120;2023-05-07T04:10:01;12.10;99.90
11043;DHT22;5574;48.786;10.120;2023-05-07T04:12:28;12.10;99.90
11043;DHT22;5574;48.786;10.120;2023-05-07T04:14:56;12.00;99.90
11043;DHT22;5574;48.786;10.120;2023-05-07T04:17:23;12.00;99.90
11043;DHT22;5574;48.786;10.120;2023-05-07T04:19:49;12.10;99.90
11043;DHT22;5574;48.786;10.120;2023-05-07T04:22:16;12.00;99.90
11043;DHT22;5574;48.786;10.120;2023-05-07T04:24:43;12.00;99.90
11043;DHT22;5574;48.786;10.120;2023-05-07T04:27:09;12.00;99.90
11043;DHT22;5574;48.786;10.120;2023-05-07T04:29:36;11.90;99.90
11043;DHT22;5574;48.786;10.120;2023-05-07T04:32:05;12.00;99.90
11043;DHT22;5574;48.786;10.120;2023-05-07T04:34:32;11.90;99.90
11043;DHT22;5574;48.786;10.120;2023-05-07T04:36:59;12.00;99.90
11043;DHT22;5574;48.786;10.120;2023-05-07T04:39:25;12.00;99.90
11043;DHT22;5574;48.786;10.120;2023-05-07T04:41:52;12.00;99.90
11043;DHT22;5574;48.786;10.120;2023-05-07T04:44:19;12.00;99.90
11043;DHT22;5574;48.786;10.120;2023-05-07T04:46:46;12.00;99.90
11043;DHT22;5574;48.786;10.120;2023-05-07T04:49:14;12.00;99.90
11043;DHT22;5574;48.786;10.120;2023-05-07T04:51:41;12.00;99.90
11043;DHT22;5574;48.786;10.120;2023-05-07T04:54:08;12.10;99.90
11043;DHT22;5574;48.786;10.120;2023-05-07T04:56:35;12.10;99.90
11043;DHT22;5574;48.786;10.120;2023-05-07T04:59:02;12.20;99.90
11043;DHT22;5574;48.786;10.120;2023-05-07T05:01:28;12.30;99.90
11043;DHT22;5574;48.786;10.120;2023-05-07T05:03:55;12.30;99.90
11043;DHT22;5574;48.786;10.120;2023-05-07T05:06:23;12.40;99.90
11043;DHT22;5574;48.786;10.120;2023-05-07T05:08:50;12.40;99.90
11043;DHT22;5574;48.786;10.120;2023-05-07T05:11:16;12.50;99.90
11043;DHT22;5574;48.786;10.120;2023-05-07T05:13:43;12.50;99.90
11043;DHT22;5574;48.786;10.120;2023-05-07T05:16:10;12.50;99.90
11043;DHT22;5574;48.786;10.120;2023-05-07T05:18:36;12.50;99.90
11043;DHT22;5574;48.786;10.120;2023-05-07T05:21:03;12.40;99.90
11043;DHT22;5574;48.786;10.120;2023-05-07T05:23:31;12.40;99.90
11043;DHT22;5574;48.786;10.120;2023-05-07T05:25:58;12.30;99.90
11043;DHT22;5574;48.786;10.120;2023-05-07T05:28:25;12.40;99.90
11043;DHT22;5574;48.786;10.120;2023-05-07T05:30:53;12.40;99.90
11043;DHT22;5574;48.786;10.120;2023-05-07T05:33:19;12.50;99.90
11043;DHT22;5574;48.786;10.120;2023-05-07T05:35:46;12.50;99.90
11043;DHT22;5574;48.786;10.120;2023-05-07T05:38:13;12.60;99.90
11043;DHT22;5574;48.786;10.120;2023-05-07T05:40:41;12.70;99.90
11043;DHT22;5574;48.786;10.120;2023-05-07T05:43:07;12.70;99.90
11043;DHT22;5574;48.786;10.120;2023-05-07T05:45:34;12.60;99.90
11043;DHT22;5574;48.786;10.120;2023-05-07T05:48:01;12.60;99.90
11043;DHT22;5574;48.786;10.120;2023-05-07T05:50:27;12.70;99.90
11043;DHT22;5574;48.786;10.120;2023-05-07T05:52:54;12.80;99.90
11043;DHT22;5574;48.786;10.120;2023-05-07T05:55:21;12.90;99.90
11043;DHT22;5574;48.786;10.120;2023-05-07T05:57:49;13.10;99.90
11043;DHT22;5574;48.786;10.120;2023-05-07T06:00:16;13.20;99.90
11043;DHT22;5574;48.786;10.120;2023-05-07T06:02:43;13.30;99.90
11043;DHT22;5574;48.786;10.120;2023-05-07T06:05:10;13.40;99.90
11043;DHT22;5574;48.786;10.120;2023-05-07T06:07:36;13.40;99.90
11043;DHT22;5574;48.786;10.120;2023-05-07T06:10:04;13.40;99.90
11043;DHT22;5574;48.786;10.120;2023-05-07T06:12:31;13.40;99.90
11043;DHT22;5574;48.786;10.120;2023-05-07T06:14:59;13.40;99.90
11043;DHT22;5574;48.786;10.120;2023-05-07T06:17:26;13.60;99.90
11043;DHT22;5574;48.786;10.120;2023-05-07T06:19:53;13.80;99.90
11043;DHT22;5574;48.786;10.120;2023-05-07T06:22:20;14.00;99.90
11043;DHT22;5574;48.786;10.120;2023-05-07T06:24:47;14.10;99.90
11043;DHT22;5574;48.786;10.120;2023-05-07T06:27:13;14.40;99.90
11043;DHT22;5574;48.786;10.120;2023-05-07T06:29:40;14.60;99.90
11043;DHT22;5574;48.786;10.120;2023-05-07T06:32:08;14.70;99.90
11043;DHT22;5574;48.786;10.120;2023-05-07T06:34:35;14.90;99.90
11043;DHT22;5574;48.786;10.120;2023-05-07T06:37:02;15.00;99.90
11043;DHT22;5574;48.786;10.120;2023-05-07T06:39:29;15.20;99.90
11043;DHT22;5574;48.786;10.120;2023-05-07T06:41:56;15.40;99.90
11043;DHT22;5574;48.786;10.120;2023-05-07T06:44:22;15.50;99.90
11043;DHT22;5574;48.786;10.120;2023-05-07T06:46:49;15.70;99.90
11043;DHT22;5574;48.786;10.120;2023-05-07T06:49:18;16.00;99.90
11043;DHT22;5574;48.786;10.120;2023-05-07T06:51:44;16.00;99.90
11043;DHT22;5574;48.786;10.120;2023-05-07T06:54:11;16.10;99.90
11043;DHT22;5574;48.786;10.120;2023-05-07T06:56:38;16.20;99.90
11043;DHT22;5574;48.786;10.120;2023-05-07T06:59:05;16.20;99.90
11043;DHT22;5574;48.786;10.120;2023-05-07T07:01:32;16.20;99.90
11043;DHT22;5574;48.786;10.120;2023-05-07T07:03:59;16.30;99.90
11043;DHT22;5574;48.786;10.120;2023-05-07T07:06:27;16.30;99.90
11043;DHT22;5574;48.786;10.120;2023-05-07T07:08:53;16.20;99.90
11043;DHT22;5574;48.786;10.120;2023-05-07T07:11:20;16.20;99.90
11043;DHT22;5574;48.786;10.120;2023-05-07T07:13:47;16.20;99.90
11043;DHT22;5574;48.786;10.120;2023-05-07T07:16:13;16.20;99.90
11043;DHT22;5574;48.786;10.120;2023-05-07T07:18:40;16.20;99.90
11043;DHT22;5574;48.786;10.120;2023-05-07T07:21:07;16.30;99.90
11043;DHT22;5574;48.786;10.120;2023-05-07T07:23:35;16.40;99.90
11043;DHT22;5574;48.786;10.120;2023-05-07T07:26:02;16.50;99.90
11043;DHT22;5574;48.786;10.120;2023-05-07T07:28:28;16.60;99.90
11043;DHT22;5574;48.786;10.120;2023-05-07T07:30:55;16.70;99.90
11043;DHT22;5574;48.786;10.120;2023-05-07T07:33:22;16.80;99.90
11043;DHT22;5574;48.786;10.120;2023-05-07T07:35:48;17.00;99.90
11043;DHT22;5574;48.786;10.120;2023-05-07T07:38:15;17.10;99.90
11043;DHT22;5574;48.786;10.120;2023-05-07T07:40:43;17.10;99.90
11043;DHT22;5574;48.786;10.120;2023-05-07T07:43:11;17.30;99.90
11043;DHT22;5574;48.786;10.120;2023-05-07T07:45:38;17.40;99.90
11043;DHT22;5574;48.786;10.120;2023-05-07T07:48:05;17.50;99.90
11043;DHT22;5574;48.786;10.120;2023-05-07T07:50:31;17.50;99.90
11043;DHT22;5574;48.786;10.120;2023-05-07T07:52:58;17.60;99.90
11043;DHT22;5574;48.786;10.120;2023-05-07T07:55:25;17.60;99.90
11043;DHT22;5574;48.786;10.120;2023-05-07T07:57:54;17.70;99.90
11043;DHT22;5574;48.786;10.120;2023-05-07T08:00:20;17.70;99.90
11043;DHT22;5574;48.786;10.120;2023-05-07T08:02:47;17.70;99.90
11043;DHT22;5574;48.786;10.120;2023-05-07T08:05:14;17.70;99.90
11043;DHT22;5574;48.786;10.120;2023-05-07T08:07:40;17.80;99.90
11043;DHT22;5574;48.786;10.120;2023-05-07T08:10:08;18.00;99.90
11043;DHT22;5574;48.786;10.120;2023-05-07T08:12:34;18.20;99.90
11043;DHT22;5574;48.786;10.120;2023-05-07T08:15:03;18.50;99.90
11043;DHT22;5574;48.786;10.120;2023-05-07T08:17:30;18.50;99.90
11043;DHT22;5574;48.786;10.120;2023-05-07T08:19:57;18.40;99.90
11043;DHT22;5574;48.786;10.120;2023-05-07T08:22:23;18.60;99.90
11043;DHT22;5574;48.786;10.120;2023-05-07T08:24:50;18.90;99.90
11043;DHT22;5574;48.786;10.120;2023-05-07T08:27:18;19.20;99.90
11043;DHT22;5574;48.786;10.120;2023-05-07T08:29:45;19.40;99.90
11043;DHT22;5574;48.786;10.120;2023-05-07T08:32:14;19.60;99.90
11043;DHT22;5574;48.786;10.120;2023-05-07T08:34:41;19.90;99.90
11043;DHT22;5574;48.786;10.120;2023-05-07T08:37:08;20.00;99.90
11043;DHT22;5574;48.786;10.120;2023-05-07T08:39:34;19.80;99.90
11043;DHT22;5574;48.786;10.120;2023-05-07T08:42:01;19.60;99.90
11043;DHT22;5574;48.786;10.120;2023-05-07T08:44:33;19.40;99.90
11043;DHT22;5574;48.786;10.120;2023-05-07T08:47:01;19.40;99.90
11043;DHT22;5574;48.786;10.120;2023-05-07T08:49:29;19.40;99.90
11043;DHT22;5574;48.786;10.120;2023-05-07T08:51:56;19.60;99.90
11043;DHT22;5574;48.786;10.120;2023-05-07T08:54:23;19.70;99.90
11043;DHT22;5574;48.786;10.120;2023-05-07T08:56:50;19.70;99.90
11043;DHT22;5574;48.786;10.120;2023-05-07T08:59:17;19.80;99.90
11043;DHT22;5574;48.786;10.120;2023-05-07T09:01:44;19.80;99.90
11043;DHT22;5574;48.786;10.120;2023-05-07T09:04:11;19.90;99.90
11043;DHT22;5574;48.786;10.120;2023-05-07T09:06:40;19.90;99.90
11043;DHT22;5574;48.786;10.120;2023-05-07T09:09:07;19.90;99.90
11043;DHT22;5574;48.786;10.120;2023-05-07T09:11:34;20.10;99.90
11043;DHT22;5574;48.786;10.120;2023-05-07T09:14:01;20.30;99.90
11043;DHT22;5574;48.786;10.120;2023-05-07T09:16:29;20.20;99.90
11043;DHT22;5574;48.786;10.120;2023-05-07T09:18:58;20.20;99.90
11043;DHT22;5574;48.786;10.120;2023-05-07T09:21:25;20.20;99.90
11043;DHT22;5574;48.786;10.120;2023-05-07T09:23:54;20.30;99.90
11043;DHT22;5574;48.786;10.120;2023-05-07T09:26:22;20.40;99.90
11043;DHT22;5574;48.786;10.120;2023-05-07T09:28:49;20.60;99.90
11043;DHT22;5574;48.786;10.120;2023-05-07T09:31:15;20.70;99.90
11043;DHT22;5574;48.786;10.120;2023-05-07T09:33:42;20.70;99.90
11043;DHT22;5574;48.786;10.120;2023-05-07T09:36:09;20.70;99.90
11043;DHT22;5574;48.786;10.120;2023-05-07T09:38:37;20.90;99.90
11043;DHT22;5574;48.786;10.120;2023-05-07T09:41:07;20.90;99.60
11043;DHT22;5574;48.786;10.120;2023-05-07T09:43:34;21.00;99.50
11043;DHT22;5574;48.786;10.120;2023-05-07T09:46:07;20.80;99.50
11043;DHT22;5574;48.786;10.120;2023-05-07T09:48:37;20.90;99.60
11043;DHT22;5574;48.786;10.120;2023-05-07T09:51:11;21.00;99.90
11043;DHT22;5574;48.786;10.120;2023-05-07T09:53:39;21.10;98.90
11043;DHT22;5574;48.786;10.120;2023-05-07T09:56:07;21.00;99.10
11043;DHT22;5574;48.786;10.120;2023-05-07T09:58:37;21.30;99.90
11043;DHT22;5574;48.786;10.120;2023-05-07T10:01:04;21.50;99.90
11043;DHT22;5574;48.786;10.120;2023-05-07T10:03:32;21.00;98.70
11043;DHT22;5574;48.786;10.120;2023-05-07T10:06:00;20.90;99.10
11043;DHT22;5574;48.786;10.120;2023-05-07T10:08:28;20.80;99.40
11043;DHT22;5574;48.786;10.120;2023-05-07T10:10:56;20.80;98.60
11043;DHT22;5574;48.786;10.120;2023-05-07T10:13:24;20.70;98.80
11043;DHT22;5574;48.786;10.120;2023-05-07T10:15:51;20.70;99.60
11043;DHT22;5574;48.786;10.120;2023-05-07T10:18:20;20.50;99.40
11043;DHT22;5574;48.786;10.120;2023-05-07T10:20:51;20.50;99.50
11043;DHT22;5574;48.786;10.120;2023-05-07T10:23:23;20.30;99.90
11043;DHT22;5574;48.786;10.120;2023-05-07T10:25:50;20.20;99.80
11043;DHT22;5574;48.786;10.120;2023-05-07T10:28:17;20.20;99.90
11043;DHT22;5574;48.786;10.120;2023-05-07T10:30:57;20.10;99.90
11043;DHT22;5574;48.786;10.120;2023-05-07T10:33:28;20.00;99.90
11043;DHT22;5574;48.786;10.120;2023-05-07T10:35:57;20.00;99.90
11043;DHT22;5574;48.786;10.120;2023-05-07T10:38:25;20.20;99.90
11043;DHT22;5574;48.786;10.120;2023-05-07T10:40:53;20.40;99.90
11043;DHT22;5574;48.786;10.120;2023-05-07T10:43:20;20.80;99.90
11043;DHT22;5574;48.786;10.120;2023-05-07T10:46:13;20.80;99.90
11043;DHT22;5574;48.786;10.120;2023-05-07T10:49:07;21.10;99.90
11043;DHT22;5574;48.786;10.120;2023-05-07T10:51:36;21.40;99.90
11043;DHT22;5574;48.786;10.120;2023-05-07T10:54:20;21.30;99.90
11043;DHT22;5574;48.786;10.120;2023-05-07T10:56:47;21.10;99.90
11043;DHT22;5574;48.786;10.120;2023-05-07T10:59:35;21.00;99.90
11043;DHT22;5574;48.786;10.120;2023-05-07T11:02:09;20.90;99.90
11043;DHT22;5574;48.786;10.120;2023-05-07T11:04:36;20.90;99.90
11043;DHT22;5574;48.786;10.120;2023-05-07T11:07:31;20.80;99.90
11043;DHT22;5574;48.786;10.120;2023-05-07T11:09:59;20.80;99.90
11043;DHT22;5574;48.786;10.120;2023-05-07T11:12:55;20.80;99.90
11043;DHT22;5574;48.786;10.120;2023-05-07T11:15:39;21.00;99.90
11043;DHT22;5574;48.786;10.120;2023-05-07T11:18:09;21.20;99.50
11043;DHT22;5574;48.786;10.120;2023-05-07T11:20:50;21.20;99.30
11043;DHT22;5574;48.786;10.120;2023-05-07T11:26:51;21.20;99.50
11043;DHT22;5574;48.786;10.120;2023-05-07T11:29:18;21.50;99.90
11043;DHT22;5574;48.786;10.120;2023-05-07T11:31:49;21.60;98.60
11043;DHT22;5574;48.786;10.120;2023-05-07T11:34:21;21.80;99.80
11043;DHT22;5574;48.786;10.120;2023-05-07T11:36:48;21.60;97.50
11043;DHT22;5574;48.786;10.120;2023-05-07T11:39:29;21.50;99.00
11043;DHT22;5574;48.786;10.120;2023-05-07T11:41:57;21.40;98.10
11043;DHT22;5574;48.786;10.120;2023-05-07T11:44:23;21.30;98.90
11043;DHT22;5574;48.786;10.120;2023-05-07T11:46:50;21.40;99.40
11043;DHT22;5574;48.786;10.120;2023-05-07T11:49:18;21.40;98.90
11043;DHT22;5574;48.786;10.120;2023-05-07T11:51:45;21.50;99.10
11043;DHT22;5574;48.786;10.120;2023-05-07T11:54:15;21.60;99.40
11043;DHT22;5574;48.786;10.120;2023-05-07T11:56:44;21.60;99.30
11043;DHT22;5574;48.786;10.120;2023-05-07T11:59:11;21.80;99.80
11043;DHT22;5574;48.786;10.120;2023-05-07T12:01:38;21.90;97.60
11043;DHT22;5574;48.786;10.120;2023-05-07T12:04:05;22.10;98.00
11043;DHT22;5574;48.786;10.120;2023-05-07T12:06:36;22.20;98.10
11043;DHT22;5574;48.786;10.120;2023-05-07T12:09:04;22.20;96.50
11043;DHT22;5574;48.786;10.120;2023-05-07T12:11:32;22.30;97.90
11043;DHT22;5574;48.786;10.120;2023-05-07T12:14:00;22.40;97.80
11043;DHT22;5574;48.786;10.120;2023-05-07T12:16:27;22.40;98.10
11043;DHT22;5574;48.786;10.120;2023-05-07T12:18:54;22.50;95.70
11043;DHT22;5574;48.786;10.120;2023-05-07T12:21:21;22.50;96.20
11043;DHT22;5574;48.786;10.120;2023-05-07T12:23:49;22.60;95.70
11043;DHT22;5574;48.786;10.120;2023-05-07T12:26:16;22.40;96.80
11043;DHT22;5574;48.786;10.120;2023-05-07T12:28:46;22.50;97.30
11043;DHT22;5574;48.786;10.120;2023-05-07T12:31:14;22.30;95.90
11043;DHT22;5574;48.786;10.120;2023-05-07T12:33:41;22.20;95.70
11043;DHT22;5574;48.786;10.120;2023-05-07T12:36:08;22.10;95.60
11043;DHT22;5574;48.786;10.120;2023-05-07T12:38:37;22.10;95.20
11043;DHT22;5574;48.786;10.120;2023-05-07T12:41:06;22.10;96.00
11043;DHT22;5574;48.786;10.120;2023-05-07T12:43:33;22.20;95.90
11043;DHT22;5574;48.786;10.120;2023-05-07T12:46:01;22.20;96.50
11043;DHT22;5574;48.786;10.120;2023-05-07T12:48:28;22.10;96.20
11043;DHT22;5574;48.786;10.120;2023-05-07T12:50:56;22.00;95.60
11043;DHT22;5574;48.786;10.120;2023-05-07T12:53:25;22.00;97.60
11043;DHT22;5574;48.786;10.120;2023-05-07T12:55:53;21.90;96.30
11043;DHT22;5574;48.786;10.120;2023-05-07T12:58:25;21.80;97.20
11043;DHT22;5574;48.786;10.120;2023-05-07T13:00:52;21.80;96.00
11043;DHT22;5574;48.786;10.120;2023-05-07T13:03:23;21.80;96.70
11043;DHT22;5574;48.786;10.120;2023-05-07T13:05:51;21.70;97.10
11043;DHT22;5574;48.786;10.120;2023-05-07T13:08:28;21.80;96.90
11043;DHT22;5574;48.786;10.120;2023-05-07T13:10:56;21.80;97.70
11043;DHT22;5574;48.786;10.120;2023-05-07T13:13:24;21.80;97.70
11043;DHT22;5574;48.786;10.120;2023-05-07T13:15:51;21.60;96.00
11043;DHT22;5574;48.786;10.120;2023-05-07T13:18:17;21.60;97.10
11043;DHT22;5574;48.786;10.120;2023-05-07T13:20:44;21.60;98.10
11043;DHT22;5574;48.786;10.120;2023-05-07T13:23:11;21.50;98.20
11043;DHT22;5574;48.786;10.120;2023-05-07T13:25:37;21.40;97.00
11043;DHT22;5574;48.786;10.120;2023-05-07T13:28:04;21.40;97.10
11043;DHT22;5574;48.786;10.120;2023-05-07T13:30:32;21.40;96.50
11043;DHT22;5574;48.786;10.120;2023-05-07T13:32:59;21.40;97.00
11043;DHT22;5574;48.786;10.120;2023-05-07T13:35:26;21.30;97.40
11043;DHT22;5574;48.786;10.120;2023-05-07T13:37:53;21.30;97.40
11043;DHT22;5574;48.786;10.120;2023-05-07T13:40:20;21.30;97.60
11043;DHT22;5574;48.786;10.120;2023-05-07T13:42:47;21.40;97.30
11043;DHT22;5574;48.786;10.120;2023-05-07T13:45:14;21.40;96.90
11043;DHT22;5574;48.786;10.120;2023-05-07T13:47:43;21.40;98.00
11043;DHT22;5574;48.786;10.120;2023-05-07T13:50:11;21.50;98.40
11043;DHT22;5574;48.786;10.120;2023-05-07T13:52:39;21.40;98.00
11043;DHT22;5574;48.786;10.120;2023-05-07T13:55:06;21.30;98.00
11043;DHT22;5574;48.786;10.120;2023-05-07T13:57:33;21.30;97.40
11043;DHT22;5574;48.786;10.120;2023-05-07T14:00:00;21.20;98.10
11043;DHT22;5574;48.786;10.120;2023-05-07T14:02:27;21.20;98.30
11043;DHT22;5574;48.786;10.120;2023-05-07T14:04:55;21.10;98.40
11043;DHT22;5574;48.786;10.120;2023-05-07T14:07:21;21.10;98.10
11043;DHT22;5574;48.786;10.120;2023-05-07T14:09:48;21.10;97.70
11043;DHT22;5574;48.786;10.120;2023-05-07T14:12:15;21.00;97.80
11043;DHT22;5574;48.786;10.120;2023-05-07T14:14:41;21.00;98.10
11043;DHT22;5574;48.786;10.120;2023-05-07T14:17:08;21.00;98.80
11043;DHT22;5574;48.786;10.120;2023-05-07T14:19:35;21.00;98.80
11043;DHT22;5574;48.786;10.120;2023-05-07T14:22:03;21.00;99.10
11043;DHT22;5574;48.786;10.120;2023-05-07T14:24:29;21.00;98.60
11043;DHT22;5574;48.786;10.120;2023-05-07T14:26:56;21.00;98.30
11043;DHT22;5574;48.786;10.120;2023-05-07T14:29:23;20.90;99.70
11043;DHT22;5574;48.786;10.120;2023-05-07T14:31:49;20.90;98.80
11043;DHT22;5574;48.786;10.120;2023-05-07T14:34:16;20.90;98.90
11043;DHT22;5574;48.786;10.120;2023-05-07T14:36:43;20.90;97.90
11043;DHT22;5574;48.786;10.120;2023-05-07T14:39:11;20.80;98.50
11043;DHT22;5574;48.786;10.120;2023-05-07T14:41:37;20.80;98.40
11043;DHT22;5574;48.786;10.120;2023-05-07T14:44:04;20.80;99.10
11043;DHT22;5574;48.786;10.120;2023-05-07T14:46:31;20.80;99.30
11043;DHT22;5574;48.786;10.120;2023-05-07T14:48:58;20.80;99.10
11043;DHT22;5574;48.786;10.120;2023-05-07T14:51:24;20.70;98.90
11043;DHT22;5574;48.786;10.120;2023-05-07T14:53:53;20.70;98.60
11043;DHT22;5574;48.786;10.120;2023-05-07T14:56:21;20.70;99.20
11043;DHT22;5574;48.786;10.120;2023-05-07T14:58:48;20.80;99.90
11043;DHT22;5574;48.786;10.120;2023-05-07T15:01:15;20.70;99.30
11043;DHT22;5574;48.786;10.120;2023-05-07T15:03:42;20.80;99.80
11043;DHT22;5574;48.786;10.120;2023-05-07T15:06:08;20.70;99.20
11043;DHT22;5574;48.786;10.120;2023-05-07T15:08:35;20.80;99.70
11043;DHT22;5574;48.786;10.120;2023-05-07T15:11:02;20.70;99.10
11043;DHT22;5574;48.786;10.120;2023-05-07T15:13:30;20.80;99.20
11043;DHT22;5574;48.786;10.120;2023-05-07T15:15:57;20.80;99.80
11043;DHT22;5574;48.786;10.120;2023-05-07T15:18:23;20.80;99.90
11043;DHT22;5574;48.786;10.120;2023-05-07T15:20:50;20.70;99.10
11043;DHT22;5574;48.786;10.120;2023-05-07T15:23:17;20.70;99.30
11043;DHT22;5574;48.786;10.120;2023-05-07T15:25:44;20.70;99.90
11043;DHT22;5574;48.786;10.120;2023-05-07T15:28:10;20.70;99.90
11043;DHT22;5574;48.786;10.120;2023-05-07T15:30:38;20.70;99.70
11043;DHT22;5574;48.786;10.120;2023-05-07T15:33:05;20.70;99.60
11043;DHT22;5574;48.786;10.120;2023-05-07T15:35:32;20.70;99.80
11043;DHT22;5574;48.786;10.120;2023-05-07T15:37:59;20.60;99.10